sensor_id;sensor_type;location;lat;lon;timestamp;temperature;humidity
25963;DHT22;13760;52.588;13.406;2023-01-15T00:00:03;8.00;99.90
25963;DHT22;13760;52.588;13.406;2023-01-15T00:02:30;8.00;99.90
25963;DHT22;13760;52.588;13.406;2023-01-15T00:04:56;8.00;99.90
25963;DHT22;13760;52.588;13.406;2023-01-15T00:07:21;8.00;99.90
25963;DHT22;13760;52.588;13.406;2023-01-15T00:09:47;8.00;99.90
25963;DHT22;13760;52.588;13.406;2023-01-15T00:12:12;8.00;99.90
25963;DHT22;13760;52.588;13.406;2023-01-15T00:14:37;8.00;99.90
25963;DHT22;13760;52.588;13.406;2023-01-15T00:17:03;8.10;99.90
25963;DHT22;13760;52.588;13.406;2023-01-15T00:19:28;8.10;99.90
25963;DHT22;13760;52.588;13.406;2023-01-15T00:21:54;8.10;99.90
25963;DHT22;13760;52.588;13.406;2023-01-15T00:24:19;8.10;99.90
25963;DHT22;13760;52.588;13.406;2023-01-15T00:27:03;8.20;99.90
25963;DHT22;13760;52.588;13.406;2023-01-15T00:29:48;8.20;99.90
25963;DHT22;13760;52.588;13.406;2023-01-15T00:32:13;8.20;99.90
25963;DHT22;13760;52.588;13.406;2023-01-15T00:34:38;8.20;99.90
25963;DHT22;13760;52.588;13.406;2023-01-15T00:37:04;8.20;99.90
25963;DHT22;13760;52.588;13.406;2023-01-15T00:39:29;8.10;99.90
25963;DHT22;13760;52.588;13.406;2023-01-15T00:41:55;8.20;99.90
25963;DHT22;13760;52.588;13.406;2023-01-15T00:44:20;8.20;99.90
25963;DHT22;13760;52.588;13.406;2023-01-15T00:46:46;8.20;99.90
25963;DHT22;13760;52.588;13.406;2023-01-15T00:49:12;8.20;99.90
25963;DHT22;13760;52.588;13.406;2023-01-15T00:51:37;8.20;99.90
25963;DHT22;13760;52.588;13.406;2023-01-15T00:54:03;8.20;99.90
25963;DHT22;13760;52.588;13.406;2023-01-15T00:56:28;8.20;99.90
25963;DHT22;13760;52.588;13.406;2023-01-15T00:58:54;8.20;99.90
25963;DHT22;13760;52.588;13.406;2023-01-15T01:01:19;8.30;99.90
25963;DHT22;13760;52.588;13.406;2023-01-15T01:03:45;8.20;99.90
25963;DHT22;13760;52.588;13.406;2023-01-15T01:06:13;8.20;99.90
25963;DHT22;13760;52.588;13.406;2023-01-15T01:08:40;8.20;99.90
25963;DHT22;13760;52.588;13.406;2023-01-15T01:11:06;8.20;99.90
25963;DHT22;13760;52.588;13.406;2023-01-15T01:13:32;8.20;99.90
25963;DHT22;13760;52.588;13.406;2023-01-15T01:15:58;8.30;99.90
25963;DHT22;13760;52.588;13.406;2023-01-15T01:18:23;8.30;99.90
25963;DHT22;13760;52.588;13.406;2023-01-15T01:20:49;8.30;99.90
25963;DHT22;13760;52.588;13.406;2023-01-15T01:23:14;8.30;99.90
25963;DHT22;13760;52.588;13.406;2023-01-15T01:25:40;8.30;99.90
25963;DHT22;13760;52.588;13.406;2023-01-15T01:28:05;8.30;99.90
25963;DHT22;13760;52.588;13.406;2023-01-15T01:30:30;8.30;99.90
25963;DHT22;13760;52.588;13.406;2023-01-15T01:32:56;8.30;99.90
25963;DHT22;13760;52.588;13.406;2023-01-15T01:35:21;8.30;99.90
25963;DHT22;13760;52.588;13.406;2023-01-15T01:37:50;8.30;99.90
25963;DHT22;13760;52.588;13.406;2023-01-15T01:40:16;8.40;99.90
25963;DHT22;13760;52.588;13.406;2023-01-15T01:42:42;8.30;99.90
25963;DHT22;13760;52.588;13.406;2023-01-15T01:45:27;8.30;99.90
25963;DHT22;13760;52.588;13.406;2023-01-15T01:47:54;8.30;99.90
25963;DHT22;13760;52.588;13.406;2023-01-15T01:50:20;8.50;99.90
25963;DHT22;13760;52.588;13.406;2023-01-15T01:52:47;8.40;99.90
25963;DHT22;13760;52.588;13.406;2023-01-15T01:55:14;8.40;99.90
25963;DHT22;13760;52.588;13.406;2023-01-15T01:57:40;8.40;99.90
25963;DHT22;13760;52.588;13.406;2023-01-15T02:00:06;8.50;99.90
25963;DHT22;13760;52.588;13.406;2023-01-15T02:02:32;8.50;99.90
25963;DHT22;13760;52.588;13.406;2023-01-15T02:04:58;8.50;99.90
25963;DHT22;13760;52.588;13.406;2023-01-15T02:07:23;8.40;99.90
25963;DHT22;13760;52.588;13.406;2023-01-15T02:09:49;8.50;99.90
25963;DHT22;13760;52.588;13.406;2023-01-15T02:12:24;8.50;99.90
25963;DHT22;13760;52.588;13.406;2023-01-15T02:14:54;8.50;99.90
25963;DHT22;13760;52.588;13.406;2023-01-15T02:17:41;8.50;99.90
25963;DHT22;13760;52.588;13.406;2023-01-15T02:22:42;8.40;99.90
25963;DHT22;13760;52.588;13.406;2023-01-15T02:25:11;8.50;99.90
25963;DHT22;13760;52.588;13.406;2023-01-15T02:27:40;8.50;99.90
25963;DHT22;13760;52.588;13.406;2023-01-15T02:32:38;8.40;99.90
25963;DHT22;13760;52.588;13.406;2023-01-15T02:35:06;8.40;99.90
25963;DHT22;13760;52.588;13.406;2023-01-15T02:37:33;8.40;99.90
25963;DHT22;13760;52.588;13.406;2023-01-15T02:40:02;8.40;99.90
25963;DHT22;13760;52.588;13.406;2023-01-15T02:42:28;8.30;99.90
25963;DHT22;13760;52.588;13.406;2023-01-15T02:44:56;8.40;99.90
25963;DHT22;13760;52.588;13.406;2023-01-15T02:47:23;8.40;99.90
25963;DHT22;13760;52.588;13.406;2023-01-15T02:49:50;8.40;99.90
25963;DHT22;13760;52.588;13.406;2023-01-15T02:52:19;8.40;99.90
25963;DHT22;13760;52.588;13.406;2023-01-15T02:54:46;8.40;99.90
25963;DHT22;13760;52.588;13.406;2023-01-15T02:57:13;8.40;99.90
25963;DHT22;13760;52.588;13.406;2023-01-15T02:59:40;8.40;99.90
25963;DHT22;13760;52.588;13.406;2023-01-15T03:02:09;8.40;99.90
25963;DHT22;13760;52.588;13.406;2023-01-15T03:04:46;8.40;99.90
25963;DHT22;13760;52.588;13.406;2023-01-15T03:09:40;8.40;99.90
25963;DHT22;13760;52.588;13.406;2023-01-15T03:12:13;8.40;99.90
25963;DHT22;13760;52.588;13.406;2023-01-15T03:14:51;8.50;99.90
25963;DHT22;13760;52.588;13.406;2023-01-15T03:17:21;8.50;99.90
25963;DHT22;13760;52.588;13.406;2023-01-15T03:19:49;8.50;99.90
25963;DHT22;13760;52.588;13.406;2023-01-15T03:27:08;8.50;99.90
25963;DHT22;13760;52.588;13.406;2023-01-15T03:29:35;8.50;99.90
25963;DHT22;13760;52.588;13.406;2023-01-15T03:32:02;8.50;99.90
25963;DHT22;13760;52.588;13.406;2023-01-15T03:37:24;8.50;99.90
25963;DHT22;13760;52.588;13.406;2023-01-15T03:39:52;8.60;99.90
25963;DHT22;13760;52.588;13.406;2023-01-15T03:47:37;8.50;99.90
25963;DHT22;13760;52.588;13.406;2023-01-15T03:50:17;8.50;99.90
25963;DHT22;13760;52.588;13.406;2023-01-15T03:55:39;8.50;99.90
25963;DHT22;13760;52.588;13.406;2023-01-15T04:00:35;8.50;99.90
25963;DHT22;13760;52.588;13.406;2023-01-15T04:03:02;8.50;99.90
25963;DHT22;13760;52.588;13.406;2023-01-15T04:05:29;8.50;99.90
25963;DHT22;13760;52.588;13.406;2023-01-15T04:07:56;8.50;99.90
25963;DHT22;13760;52.588;13.406;2023-01-15T04:10:22;8.40;99.90
25963;DHT22;13760;52.588;13.406;2023-01-15T04:12:48;8.30;99.90
25963;DHT22;13760;52.588;13.406;2023-01-15T04:15:13;8.10;99.90
25963;DHT22;13760;52.588;13.406;2023-01-15T04:17:39;7.90;99.90
25963;DHT22;13760;52.588;13.406;2023-01-15T04:20:04;7.70;99.90
25963;DHT22;13760;52.588;13.406;2023-01-15T04:22:30;7.60;99.90
25963;DHT22;13760;52.588;13.406;2023-01-15T04:24:55;7.40;99.90
25963;DHT22;13760;52.588;13.406;2023-01-15T04:27:21;7.20;99.90
25963;DHT22;13760;52.588;13.406;2023-01-15T04:29:47;7.10;99.90
25963;DHT22;13760;52.588;13.406;2023-01-15T04:32:12;7.00;99.90
25963;DHT22;13760;52.588;13.406;2023-01-15T04:34:38;6.90;99.90
25963;DHT22;13760;52.588;13.406;2023-01-15T04:37:03;6.90;99.90
25963;DHT22;13760;52.588;13.406;2023-01-15T04:39:29;6.80;99.90
25963;DHT22;13760;52.588;13.406;2023-01-15T04:41:54;6.70;99.90
25963;DHT22;13760;52.588;13.406;2023-01-15T04:44:38;6.60;99.90
25963;DHT22;13760;52.588;13.406;2023-01-15T04:47:04;6.50;99.90
25963;DHT22;13760;52.588;13.406;2023-01-15T04:49:29;6.40;99.90
25963;DHT22;13760;52.588;13.406;2023-01-15T04:51:55;6.30;99.90
25963;DHT22;13760;52.588;13.406;2023-01-15T04:54:21;6.20;99.90
25963;DHT22;13760;52.588;13.406;2023-01-15T04:56:47;6.20;99.90
25963;DHT22;13760;52.588;13.406;2023-01-15T04:59:14;6.10;99.90
25963;DHT22;13760;52.588;13.406;2023-01-15T05:01:40;6.00;99.90
25963;DHT22;13760;52.588;13.406;2023-01-15T05:04:06;5.90;99.90
25963;DHT22;13760;52.588;13.406;2023-01-15T05:06:31;5.80;99.90
25963;DHT22;13760;52.588;13.406;2023-01-15T05:08:57;5.80;99.90
25963;DHT22;13760;52.588;13.406;2023-01-15T05:11:23;5.70;99.90
25963;DHT22;13760;52.588;13.406;2023-01-15T05:13:48;5.70;99.90
25963;DHT22;13760;52.588;13.406;2023-01-15T05:16:21;5.60;99.90
25963;DHT22;13760;52.588;13.406;2023-01-15T05:18:49;5.60;99.90
25963;DHT22;13760;52.588;13.406;2023-01-15T05:21:24;5.60;99.90
25963;DHT22;13760;52.588;13.406;2023-01-15T05:23:59;5.60;99.90
25963;DHT22;13760;52.588;13.406;2023-01-15T05:26:26;5.50;99.90
25963;DHT22;13760;52.588;13.406;2023-01-15T05:28:53;5.50;99.90
25963;DHT22;13760;52.588;13.406;2023-01-15T05:31:18;5.50;99.90
25963;DHT22;13760;52.588;13.406;2023-01-15T05:33:44;5.50;99.90
25963;DHT22;13760;52.588;13.406;2023-01-15T05:36:11;5.50;99.90
25963;DHT22;13760;52.588;13.406;2023-01-15T05:38:37;5.50;99.90
25963;DHT22;13760;52.588;13.406;2023-01-15T05:41:04;5.50;99.90
25963;DHT22;13760;52.588;13.406;2023-01-15T05:43:49;5.50;99.90
25963;DHT22;13760;52.588;13.406;2023-01-15T05:46:15;5.40;99.90
25963;DHT22;13760;52.588;13.406;2023-01-15T05:48:40;5.40;99.90
25963;DHT22;13760;52.588;13.406;2023-01-15T05:51:06;5.50;99.90
25963;DHT22;13760;52.588;13.406;2023-01-15T05:53:31;5.50;99.90
25963;DHT22;13760;52.588;13.406;2023-01-15T05:56:02;5.40;99.90
25963;DHT22;13760;52.588;13.406;2023-01-15T05:58:27;5.40;99.90
25963;DHT22;13760;52.588;13.406;2023-01-15T06:00:52;5.40;99.90
25963;DHT22;13760;52.588;13.406;2023-01-15T06:03:22;5.40;99.90
25963;DHT22;13760;52.588;13.406;2023-01-15T06:08:16;5.40;99.90
25963;DHT22;13760;52.588;13.406;2023-01-15T06:10:43;5.40;99.90
25963;DHT22;13760;52.588;13.406;2023-01-15T06:13:12;5.40;99.90
25963;DHT22;13760;52.588;13.406;2023-01-15T06:15:38;5.40;99.90
25963;DHT22;13760;52.588;13.406;2023-01-15T06:18:03;5.40;99.90
25963;DHT22;13760;52.588;13.406;2023-01-15T06:20:29;5.40;99.90
25963;DHT22;13760;52.588;13.406;2023-01-15T06:22:54;5.40;99.90
25963;DHT22;13760;52.588;13.406;2023-01-15T06:25:20;5.40;99.90
25963;DHT22;13760;52.588;13.406;2023-01-15T06:27:45;5.40;99.90
25963;DHT22;13760;52.588;13.406;2023-01-15T06:30:13;5.40;99.90
25963;DHT22;13760;52.588;13.406;2023-01-15T06:32:39;5.40;99.90
25963;DHT22;13760;52.588;13.406;2023-01-15T06:35:04;5.30;99.90
25963;DHT22;13760;52.588;13.406;2023-01-15T06:37:30;5.30;99.90
25963;DHT22;13760;52.588;13.406;2023-01-15T06:39:55;5.30;99.90
25963;DHT22;13760;52.588;13.406;2023-01-15T06:42:20;5.30;99.90
25963;DHT22;13760;52.588;13.406;2023-01-15T06:45:04;5.30;99.90
25963;DHT22;13760;52.588;13.406;2023-01-15T06:47:49;5.30;99.90
25963;DHT22;13760;52.588;13.406;2023-01-15T06:50:14;5.20;99.90
25963;DHT22;13760;52.588;13.406;2023-01-15T06:52:40;5.20;99.90
25963;DHT22;13760;52.588;13.406;2023-01-15T06:55:05;5.30;99.90
25963;DHT22;13760;52.588;13.406;2023-01-15T06:57:33;5.30;99.90
25963;DHT22;13760;52.588;13.406;2023-01-15T06:59:58;5.30;99.90
25963;DHT22;13760;52.588;13.406;2023-01-15T07:02:24;5.20;99.90
25963;DHT22;13760;52.588;13.406;2023-01-15T07:04:49;5.20;99.90
25963;DHT22;13760;52.588;13.406;2023-01-15T07:07:15;5.20;99.90
25963;DHT22;13760;52.588;13.406;2023-01-15T07:09:41;5.20;99.90
25963;DHT22;13760;52.588;13.406;2023-01-15T07:12:07;5.20;99.90
25963;DHT22;13760;52.588;13.406;2023-01-15T07:14:32;5.20;99.90
25963;DHT22;13760;52.588;13.406;2023-01-15T07:16:57;5.20;99.90
25963;DHT22;13760;52.588;13.406;2023-01-15T07:19:23;5.20;99.90
25963;DHT22;13760;52.588;13.406;2023-01-15T07:21:49;5.20;99.90
25963;DHT22;13760;52.588;13.406;2023-01-15T07:24:16;5.20;99.90
25963;DHT22;13760;52.588;13.406;2023-01-15T07:26:42;5.20;99.90
25963;DHT22;13760;52.588;13.406;2023-01-15T07:29:09;5.20;99.90
25963;DHT22;13760;52.588;13.406;2023-01-15T07:31:35;5.20;99.90
25963;DHT22;13760;52.588;13.406;2023-01-15T07:34:00;5.20;99.90
25963;DHT22;13760;52.588;13.406;2023-01-15T07:36:26;5.20;99.90
25963;DHT22;13760;52.588;13.406;2023-01-15T07:38:51;5.20;99.90
25963;DHT22;13760;52.588;13.406;2023-01-15T07:41:17;5.10;99.90
25963;DHT22;13760;52.588;13.406;2023-01-15T07:44:01;5.20;99.90
25963;DHT22;13760;52.588;13.406;2023-01-15T07:46:45;5.20;99.90
25963;DHT22;13760;52.588;13.406;2023-01-15T07:49:29;5.20;99.90
25963;DHT22;13760;52.588;13.406;2023-01-15T07:52:14;5.20;99.90
25963;DHT22;13760;52.588;13.406;2023-01-15T07:54:40;5.20;99.90
25963;DHT22;13760;52.588;13.406;2023-01-15T07:57:05;5.30;99.90
25963;DHT22;13760;52.588;13.406;2023-01-15T07:59:31;5.20;99.90
25963;DHT22;13760;52.588;13.406;2023-01-15T08:01:56;5.30;99.90
25963;DHT22;13760;52.588;13.406;2023-01-15T08:04:22;5.30;99.90
25963;DHT22;13760;52.588;13.406;2023-01-15T08:06:47;5.20;99.90
25963;DHT22;13760;52.588;13.406;2023-01-15T08:09:13;5.20;99.90
25963;DHT22;13760;52.588;13.406;2023-01-15T08:11:38;5.20;99.90
25963;DHT22;13760;52.588;13.406;2023-01-15T08:14:23;5.30;99.90
25963;DHT22;13760;52.588;13.406;2023-01-15T08:17:07;5.20;99.90
25963;DHT22;13760;52.588;13.406;2023-01-15T08:19:32;5.20;99.90
25963;DHT22;13760;52.588;13.406;2023-01-15T08:21:58;5.20;99.90
25963;DHT22;13760;52.588;13.406;2023-01-15T08:24:25;5.20;99.90
25963;DHT22;13760;52.588;13.406;2023-01-15T08:26:51;5.30;99.90
25963;DHT22;13760;52.588;13.406;2023-01-15T08:29:17;5.30;99.90
25963;DHT22;13760;52.588;13.406;2023-01-15T08:31:42;5.30;99.90
25963;DHT22;13760;52.588;13.406;2023-01-15T08:34:08;5.30;99.90
25963;DHT22;13760;52.588;13.406;2023-01-15T08:36:33;5.30;99.90
25963;DHT22;13760;52.588;13.406;2023-01-15T08:38:59;5.30;99.90
25963;DHT22;13760;52.588;13.406;2023-01-15T08:41:32;5.30;99.90
25963;DHT22;13760;52.588;13.406;2023-01-15T08:43:57;5.40;99.90
25963;DHT22;13760;52.588;13.406;2023-01-15T08:46:24;5.40;99.90
25963;DHT22;13760;52.588;13.406;2023-01-15T08:48:49;5.40;99.90
25963;DHT22;13760;52.588;13.406;2023-01-15T08:51:17;5.40;99.90
25963;DHT22;13760;52.588;13.406;2023-01-15T08:53:43;5.40;99.90
25963;DHT22;13760;52.588;13.406;2023-01-15T08:56:12;5.40;99.90
25963;DHT22;13760;52.588;13.406;2023-01-15T08:58:38;5.50;99.90
25963;DHT22;13760;52.588;13.406;2023-01-15T09:01:04;5.50;99.90
25963;DHT22;13760;52.588;13.406;2023-01-15T09:03:30;5.50;99.90
25963;DHT22;13760;52.588;13.406;2023-01-15T09:05:59;5.50;99.90
25963;DHT22;13760;52.588;13.406;2023-01-15T09:08:25;5.50;99.90
25963;DHT22;13760;52.588;13.406;2023-01-15T09:10:55;5.50;99.90
25963;DHT22;13760;52.588;13.406;2023-01-15T09:13:21;5.50;99.90
25963;DHT22;13760;52.588;13.406;2023-01-15T09:15:46;5.50;99.90
25963;DHT22;13760;52.588;13.406;2023-01-15T09:18:11;5.60;99.90
25963;DHT22;13760;52.588;13.406;2023-01-15T09:20:39;5.60;99.90
25963;DHT22;13760;52.588;13.406;2023-01-15T09:23:04;5.60;99.90
25963;DHT22;13760;52.588;13.406;2023-01-15T09:25:30;5.60;99.90
25963;DHT22;13760;52.588;13.406;2023-01-15T09:27:55;5.70;99.90
25963;DHT22;13760;52.588;13.406;2023-01-15T09:30:21;5.70;99.90
25963;DHT22;13760;52.588;13.406;2023-01-15T09:32:47;5.70;99.90
25963;DHT22;13760;52.588;13.406;2023-01-15T09:35:12;5.70;99.90
25963;DHT22;13760;52.588;13.406;2023-01-15T09:37:38;5.70;99.90
25963;DHT22;13760;52.588;13.406;2023-01-15T09:40:04;5.80;99.90
25963;DHT22;13760;52.588;13.406;2023-01-15T09:47:33;5.80;99.90
25963;DHT22;13760;52.588;13.406;2023-01-15T09:55:30;5.80;99.90
25963;DHT22;13760;52.588;13.406;2023-01-15T09:57:57;5.80;99.90
25963;DHT22;13760;52.588;13.406;2023-01-15T10:00:24;5.80;99.90
25963;DHT22;13760;52.588;13.406;2023-01-15T10:02:52;5.80;99.90
25963;DHT22;13760;52.588;13.406;2023-01-15T10:05:23;5.80;99.90
25963;DHT22;13760;52.588;13.406;2023-01-15T10:10:19;5.90;99.90
25963;DHT22;13760;52.588;13.406;2023-01-15T10:12:47;5.90;99.90
25963;DHT22;13760;52.588;13.406;2023-01-15T10:17:50;5.90;99.90
25963;DHT22;13760;52.588;13.406;2023-01-15T10:23:08;6.00;99.90
25963;DHT22;13760;52.588;13.406;2023-01-15T10:25:39;6.00;99.90
25963;DHT22;13760;52.588;13.406;2023-01-15T10:28:24;6.00;99.90
25963;DHT22;13760;52.588;13.406;2023-01-15T10:30:50;6.00;99.90
25963;DHT22;13760;52.588;13.406;2023-01-15T10:33:23;6.10;99.90
25963;DHT22;13760;52.588;13.406;2023-01-15T10:35:57;6.10;99.90
25963;DHT22;13760;52.588;13.406;2023-01-15T10:38:48;6.10;99.90
25963;DHT22;13760;52.588;13.406;2023-01-15T10:46:18;6.20;99.90
25963;DHT22;13760;52.588;13.406;2023-01-15T10:48:45;6.20;99.90
25963;DHT22;13760;52.588;13.406;2023-01-15T10:51:14;6.20;99.90
25963;DHT22;13760;52.588;13.406;2023-01-15T10:53:52;6.20;99.90
25963;DHT22;13760;52.588;13.406;2023-01-15T10:58:54;6.20;99.90
25963;DHT22;13760;52.588;13.406;2023-01-15T11:01:21;6.20;99.90
25963;DHT22;13760;52.588;13.406;2023-01-15T11:03:48;6.20;99.90
25963;DHT22;13760;52.588;13.406;2023-01-15T11:06:15;6.30;99.90
25963;DHT22;13760;52.588;13.406;2023-01-15T11:08:41;6.30;99.90
25963;DHT22;13760;52.588;13.406;2023-01-15T11:11:16;6.30;99.90
25963;DHT22;13760;52.588;13.406;2023-01-15T11:13:50;6.30;99.90
25963;DHT22;13760;52.588;13.406;2023-01-15T11:16:35;6.40;99.90
25963;DHT22;13760;52.588;13.406;2023-01-15T11:22:08;6.40;99.90
25963;DHT22;13760;52.588;13.406;2023-01-15T11:24:37;6.50;99.90
25963;DHT22;13760;52.588;13.406;2023-01-15T11:27:12;6.50;99.90
25963;DHT22;13760;52.588;13.406;2023-01-15T11:29:38;6.50;99.90
25963;DHT22;13760;52.588;13.406;2023-01-15T11:32:15;6.60;99.90
25963;DHT22;13760;52.588;13.406;2023-01-15T11:34:50;6.60;99.90
25963;DHT22;13760;52.588;13.406;2023-01-15T11:37:16;6.60;99.90
25963;DHT22;13760;52.588;13.406;2023-01-15T11:39:42;6.60;99.90
25963;DHT22;13760;52.588;13.406;2023-01-15T11:42:15;6.60;99.90
25963;DHT22;13760;52.588;13.406;2023-01-15T11:45:00;6.70;99.90
25963;DHT22;13760;52.588;13.406;2023-01-15T11:47:51;6.70;99.90
25963;DHT22;13760;52.588;13.406;2023-01-15T11:50:38;6.70;99.90
25963;DHT22;13760;52.588;13.406;2023-01-15T11:53:12;6.70;99.90
25963;DHT22;13760;52.588;13.406;2023-01-15T11:55:40;6.80;99.90
25963;DHT22;13760;52.588;13.406;2023-01-15T11:58:14;6.80;99.90
25963;DHT22;13760;52.588;13.406;2023-01-15T12:00:41;6.80;99.90
25963;DHT22;13760;52.588;13.406;2023-01-15T12:03:13;6.80;99.90
25963;DHT22;13760;52.588;13.406;2023-01-15T12:05:44;6.90;99.90
25963;DHT22;13760;52.588;13.406;2023-01-15T12:08:16;6.90;99.90
25963;DHT22;13760;52.588;13.406;2023-01-15T12:10:55;6.90;99.90
25963;DHT22;13760;52.588;13.406;2023-01-15T12:18:52;6.90;99.90
25963;DHT22;13760;52.588;13.406;2023-01-15T12:29:34;7.00;99.90
25963;DHT22;13760;52.588;13.406;2023-01-15T12:32:07;7.00;99.90
25963;DHT22;13760;52.588;13.406;2023-01-15T12:34:38;7.00;99.90
25963;DHT22;13760;52.588;13.406;2023-01-15T12:37:05;7.10;99.90
25963;DHT22;13760;52.588;13.406;2023-01-15T12:42:19;7.10;99.90
25963;DHT22;13760;52.588;13.406;2023-01-15T12:45:06;7.10;99.90
25963;DHT22;13760;52.588;13.406;2023-01-15T12:47:37;7.10;99.90
25963;DHT22;13760;52.588;13.406;2023-01-15T12:52:33;7.20;99.90
25963;DHT22;13760;52.588;13.406;2023-01-15T12:55:05;7.20;99.90
25963;DHT22;13760;52.588;13.406;2023-01-15T12:57:34;7.20;99.90
25963;DHT22;13760;52.588;13.406;2023-01-15T13:02:53;7.20;99.90
25963;DHT22;13760;52.588;13.406;2023-01-15T13:08:11;7.10;99.90
25963;DHT22;13760;52.588;13.406;2023-01-15T13:10:40;7.10;99.90
25963;DHT22;13760;52.588;13.406;2023-01-15T13:15:38;7.20;99.90
25963;DHT22;13760;52.588;13.406;2023-01-15T13:20:33;7.20;99.90
25963;DHT22;13760;52.588;13.406;2023-01-15T13:23:06;7.20;99.90
25963;DHT22;13760;52.588;13.406;2023-01-15T13:28:00;7.10;99.90
25963;DHT22;13760;52.588;13.406;2023-01-15T13:32:55;7.10;99.90
25963;DHT22;13760;52.588;13.406;2023-01-15T13:35:28;7.10;99.90
25963;DHT22;13760;52.588;13.406;2023-01-15T13:37:55;7.00;99.90
25963;DHT22;13760;52.588;13.406;2023-01-15T13:40:24;7.00;99.90
25963;DHT22;13760;52.588;13.406;2023-01-15T13:42:51;7.00;99.90
25963;DHT22;13760;52.588;13.406;2023-01-15T13:47:47;6.90;99.90
25963;DHT22;13760;52.588;13.406;2023-01-15T13:50:26;6.90;99.90
25963;DHT22;13760;52.588;13.406;2023-01-15T13:53:27;6.80;99.90
25963;DHT22;13760;52.588;13.406;2023-01-15T13:55:50;6.80;99.90
25963;DHT22;13760;52.588;13.406;2023-01-15T13:59:00;6.70;99.90
25963;DHT22;13760;52.588;13.406;2023-01-15T14:03:51;6.80;99.90
25963;DHT22;13760;52.588;13.406;2023-01-15T14:06:17;6.80;99.90
25963;DHT22;13760;52.588;13.406;2023-01-15T14:08:43;6.80;99.90
25963;DHT22;13760;52.588;13.406;2023-01-15T14:11:29;6.80;99.90
25963;DHT22;13760;52.588;13.406;2023-01-15T14:14:10;6.80;99.90
25963;DHT22;13760;52.588;13.406;2023-01-15T14:16:41;6.70;99.90
25963;DHT22;13760;52.588;13.406;2023-01-15T14:19:16;6.80;99.90
25963;DHT22;13760;52.588;13.406;2023-01-15T14:24:38;6.70;99.90
25963;DHT22;13760;52.588;13.406;2023-01-15T14:27:17;6.70;99.90
25963;DHT22;13760;52.588;13.406;2023-01-15T14:29:57;6.70;99.90
25963;DHT22;13760;52.588;13.406;2023-01-15T14:32:30;6.80;99.90
25963;DHT22;13760;52.588;13.406;2023-01-15T14:35:00;6.80;99.90
25963;DHT22;13760;52.588;13.406;2023-01-15T14:37:39;6.80;99.90
25963;DHT22;13760;52.588;13.406;2023-01-15T14:40:16;6.80;99.90
25963;DHT22;13760;52.588;13.406;2023-01-15T14:42:41;6.80;99.90
25963;DHT22;13760;52.588;13.406;2023-01-15T14:45:29;6.80;99.90
25963;DHT22;13760;52.588;13.406;2023-01-15T14:50:23;6.80;99.90
25963;DHT22;13760;52.588;13.406;2023-01-15T14:52:49;6.80;99.90
25963;DHT22;13760;52.588;13.406;2023-01-15T14:55:15;6.80;99.90
25963;DHT22;13760;52.588;13.406;2023-01-15T14:57:42;6.70;99.90
25963;DHT22;13760;52.588;13.406;2023-01-15T15:00:11;6.70;99.90
25963;DHT22;13760;52.588;13.406;2023-01-15T15:02:40;6.70;99.90
25963;DHT22;13760;52.588;13.406;2023-01-15T15:05:12;6.80;99.90
25963;DHT22;13760;52.588;13.406;2023-01-15T15:07:39;6.70;99.90
25963;DHT22;13760;52.588;13.406;2023-01-15T15:20:30;6.50;99.90
25963;DHT22;13760;52.588;13.406;2023-01-15T15:23:07;6.40;99.90
25963;DHT22;13760;52.588;13.406;2023-01-15T15:25:35;6.40;99.90
25963;DHT22;13760;52.588;13.406;2023-01-15T15:28:07;6.30;99.90
25963;DHT22;13760;52.588;13.406;2023-01-15T15:30:34;6.30;99.90
25963;DHT22;13760;52.588;13.406;2023-01-15T15:33:02;6.20;99.90
25963;DHT22;13760;52.588;13.406;2023-01-15T15:35:28;6.10;99.90
25963;DHT22;13760;52.588;13.406;2023-01-15T15:37:54;6.20;99.90
25963;DHT22;13760;52.588;13.406;2023-01-15T15:40:23;6.10;99.90
25963;DHT22;13760;52.588;13.406;2023-01-15T15:43:03;6.10;99.90
25963;DHT22;13760;52.588;13.406;2023-01-15T15:45:50;6.10;99.90
25963;DHT22;13760;52.588;13.406;2023-01-15T15:48:34;6.10;99.90
25963;DHT22;13760;52.588;13.406;2023-01-15T15:51:22;6.00;99.90
25963;DHT22;13760;52.588;13.406;2023-01-15T15:53:47;6.00;99.90
25963;DHT22;13760;52.588;13.406;2023-01-15T15:56:13;6.00;99.90
25963;DHT22;13760;52.588;13.406;2023-01-15T15:58:39;5.90;99.90
25963;DHT22;13760;52.588;13.406;2023-01-15T16:01:04;5.90;99.90
25963;DHT22;13760;52.588;13.406;2023-01-15T16:03:34;6.00;99.90
25963;DHT22;13760;52.588;13.406;2023-01-15T16:06:01;6.00;99.90
25963;DHT22;13760;52.588;13.406;2023-01-15T16:08:27;5.90;99.90
25963;DHT22;13760;52.588;13.406;2023-01-15T16:10:53;5.90;99.90
25963;DHT22;13760;52.588;13.406;2023-01-15T16:13:27;5.80;99.90
25963;DHT22;13760;52.588;13.406;2023-01-15T16:15:54;5.80;99.90
25963;DHT22;13760;52.588;13.406;2023-01-15T16:18:28;5.80;99.90
25963;DHT22;13760;52.588;13.406;2023-01-15T16:20:55;5.70;99.90
25963;DHT22;13760;52.588;13.406;2023-01-15T16:23:23;5.70;99.90
25963;DHT22;13760;52.588;13.406;2023-01-15T16:25:59;5.70;99.90
25963;DHT22;13760;52.588;13.406;2023-01-15T16:28:26;5.70;99.90
25963;DHT22;13760;52.588;13.406;2023-01-15T16:30:58;5.70;99.90
25963;DHT22;13760;52.588;13.406;2023-01-15T16:33:24;5.70;99.90
25963;DHT22;13760;52.588;13.406;2023-01-15T16:35:57;5.60;99.90
25963;DHT22;13760;52.588;13.406;2023-01-15T16:38:22;5.60;99.90
25963;DHT22;13760;52.588;13.406;2023-01-15T16:40:48;5.60;99.90
25963;DHT22;13760;52.588;13.406;2023-01-15T16:43:21;5.50;99.90
25963;DHT22;13760;52.588;13.406;2023-01-15T16:45:57;5.50;99.90
25963;DHT22;13760;52.588;13.406;2023-01-15T16:48:24;5.50;99.90
25963;DHT22;13760;52.588;13.406;2023-01-15T16:50:51;5.50;99.90
25963;DHT22;13760;52.588;13.406;2023-01-15T16:56:02;5.50;99.90
25963;DHT22;13760;52.588;13.406;2023-01-15T16:58:33;5.50;99.90
25963;DHT22;13760;52.588;13.406;2023-01-15T17:01:00;5.50;99.90
25963;DHT22;13760;52.588;13.406;2023-01-15T17:03:26;5.50;99.90
25963;DHT22;13760;52.588;13.406;2023-01-15T17:05:56;5.60;99.90
25963;DHT22;13760;52.588;13.406;2023-01-15T17:08:33;5.60;99.90
25963;DHT22;13760;52.588;13.406;2023-01-15T17:11:03;5.60;99.90
25963;DHT22;13760;52.588;13.406;2023-01-15T17:13:30;5.50;99.90
25963;DHT22;13760;52.588;13.406;2023-01-15T17:16:00;5.50;99.90
25963;DHT22;13760;52.588;13.406;2023-01-15T17:18:27;5.50;99.90
25963;DHT22;13760;52.588;13.406;2023-01-15T17:20:53;5.50;99.90
25963;DHT22;13760;52.588;13.406;2023-01-15T17:23:20;5.50;99.90
25963;DHT22;13760;52.588;13.406;2023-01-15T17:25:46;5.50;99.90
25963;DHT22;13760;52.588;13.406;2023-01-15T17:28:12;5.50;99.90
25963;DHT22;13760;52.588;13.406;2023-01-15T17:30:39;5.50;99.90
25963;DHT22;13760;52.588;13.406;2023-01-15T17:33:05;5.40;99.90
25963;DHT22;13760;52.588;13.406;2023-01-15T17:35:32;5.40;99.90